createdAt,value
2017-12-05T00:01:57.826Z,8.60
2017-12-05T00:04:24.232Z,9.63
2017-12-05T00:06:50.634Z,10.97
2017-12-05T00:09:17.036Z,10.53
2017-12-05T00:11:43.436Z,12.77
2017-12-05T00:14:10.107Z,9.60
2017-12-05T00:16:37.268Z,10.10
2017-12-05T00:19:04.557Z,7.70
2017-12-05T00:21:31.029Z,12.40
2017-12-05T00:23:57.457Z,10.73
2017-12-05T00:26:23.869Z,10.10
2017-12-05T00:28:50.272Z,10.93
2017-12-05T00:31:16.716Z,7.43
2017-12-05T00:33:43.139Z,10.43
2017-12-05T00:36:09.565Z,12.20
2017-12-05T00:38:35.975Z,10.80
2017-12-05T00:41:03.149Z,10.93
2017-12-05T00:43:29.536Z,17.73
2017-12-05T00:45:56.730Z,11.60
2017-12-05T00:48:23.143Z,13.30
2017-12-05T00:50:49.521Z,13.13
2017-12-05T00:53:16.031Z,10.90
2017-12-05T00:55:42.411Z,13.17
2017-12-05T00:58:08.824Z,12.83
2017-12-05T01:00:35.212Z,14.47
2017-12-05T01:03:02.402Z,14.23
2017-12-05T01:05:29.510Z,9.50
2017-12-05T01:07:56.635Z,9.60
2017-12-05T01:10:23.031Z,13.37
2017-12-05T01:12:49.440Z,12.67
2017-12-05T01:15:15.836Z,8.00
2017-12-05T01:17:42.287Z,15.07
2017-12-05T01:20:09.426Z,14.93
2017-12-05T01:22:35.887Z,8.57
2017-12-05T01:25:02.301Z,21.10
2017-12-05T01:27:29.428Z,9.67
2017-12-05T01:29:56.555Z,15.40
2017-12-05T01:32:22.941Z,9.73
2017-12-05T01:34:50.036Z,13.60
2017-12-05T01:37:16.525Z,10.33
2017-12-05T01:39:43.645Z,12.93
2017-12-05T01:42:10.072Z,9.70
2017-12-05T01:44:36.472Z,10.43
2017-12-05T01:47:02.902Z,8.23
2017-12-05T01:49:29.345Z,15.37
2017-12-05T01:51:55.777Z,11.00
2017-12-05T01:54:22.212Z,9.30
2017-12-05T01:56:48.655Z,11.60
2017-12-05T01:59:15.144Z,7.87
2017-12-05T02:01:41.603Z,7.10
2017-12-05T02:04:08.090Z,11.50
2017-12-05T02:06:35.294Z,10.50
2017-12-05T02:09:01.740Z,6.33
2017-12-05T02:11:28.161Z,9.10
2017-12-05T02:13:54.595Z,8.60
2017-12-05T02:16:21.106Z,7.00
2017-12-05T02:18:47.559Z,14.07
2017-12-05T02:21:14.108Z,7.43
2017-12-05T02:23:40.501Z,9.17
2017-12-05T02:26:06.941Z,7.87
2017-12-05T02:28:33.353Z,11.10
2017-12-05T02:30:59.762Z,7.20
2017-12-05T02:33:26.148Z,8.83
2017-12-05T02:35:52.529Z,7.70
2017-12-05T02:38:19.679Z,10.10
2017-12-05T02:40:58.367Z,10.37
2017-12-05T02:43:24.809Z,9.40
2017-12-05T02:45:51.244Z,14.63
2017-12-05T02:48:17.690Z,10.93
2017-12-05T02:50:44.131Z,5.73
2017-12-05T02:53:10.591Z,9.63
2017-12-05T02:55:37.749Z,6.20
2017-12-05T02:58:05.026Z,6.77
2017-12-05T03:00:31.525Z,7.40
2017-12-05T03:02:57.940Z,7.40
2017-12-05T03:05:25.108Z,8.40
2017-12-05T03:07:52.267Z,4.63
2017-12-05T03:10:18.671Z,9.00
2017-12-05T03:12:45.855Z,11.30
2017-12-05T03:15:12.278Z,4.40
2017-12-05T03:17:38.732Z,4.07
2017-12-05T03:20:05.222Z,6.00
2017-12-05T03:22:32.445Z,12.60
2017-12-05T03:24:58.860Z,6.13
2017-12-05T03:27:25.300Z,12.13
2017-12-05T03:29:51.714Z,6.17
2017-12-05T03:32:18.115Z,6.20
2017-12-05T03:34:44.516Z,6.80
2017-12-05T03:37:10.920Z,5.07
2017-12-05T03:39:37.319Z,5.67
2017-12-05T03:42:04.442Z,4.40
2017-12-05T03:44:31.583Z,5.63
2017-12-05T03:46:57.992Z,6.33
2017-12-05T03:49:24.355Z,5.00
2017-12-05T03:51:51.506Z,7.90
2017-12-05T03:54:18.647Z,8.43
2017-12-05T03:56:45.026Z,3.20
2017-12-05T03:59:11.400Z,4.43
2017-12-05T04:01:37.924Z,13.43
2017-12-05T04:04:04.331Z,5.00
2017-12-05T04:06:30.703Z,7.40
2017-12-05T04:08:57.136Z,6.33
2017-12-05T04:11:23.543Z,8.20
2017-12-05T04:13:49.940Z,11.97
2017-12-05T04:16:16.328Z,10.53
2017-12-05T04:18:42.746Z,5.80
2017-12-05T04:21:09.141Z,5.50
2017-12-05T04:23:35.571Z,7.23
2017-12-05T04:26:01.948Z,7.47
2017-12-05T04:28:28.343Z,4.53
2017-12-05T04:30:54.802Z,6.17
2017-12-05T04:33:21.219Z,2.83
2017-12-05T04:35:47.669Z,3.83
2017-12-05T04:38:14.099Z,4.97
2017-12-05T04:40:40.524Z,6.27
2017-12-05T04:43:06.936Z,6.33
2017-12-05T04:45:33.370Z,5.93
2017-12-05T04:47:59.800Z,3.63
2017-12-05T04:50:26.242Z,4.00
2017-12-05T04:52:52.675Z,5.73
2017-12-05T04:55:19.121Z,7.73
2017-12-05T04:57:45.556Z,8.27
2017-12-05T05:00:11.955Z,4.00
2017-12-05T05:02:38.358Z,5.40
2017-12-05T05:05:04.789Z,4.23
2017-12-05T05:07:38.149Z,4.80
2017-12-05T05:10:04.617Z,3.73
2017-12-05T05:12:31.005Z,3.03
2017-12-05T05:14:57.443Z,4.27
2017-12-05T05:17:23.892Z,4.30
2017-12-05T05:19:50.316Z,3.43
2017-12-05T05:22:16.753Z,3.83
2017-12-05T05:24:43.148Z,4.17
2017-12-05T05:27:09.649Z,4.00
2017-12-05T05:29:36.086Z,2.83
2017-12-05T05:32:03.289Z,4.80
2017-12-05T05:37:10.307Z,6.90
2017-12-05T05:39:36.694Z,6.77
2017-12-05T05:42:03.823Z,6.87
2017-12-05T05:44:30.953Z,9.93
2017-12-05T05:47:03.407Z,3.70
2017-12-05T05:49:29.836Z,6.87
2017-12-05T05:51:56.236Z,2.57
2017-12-05T05:54:22.615Z,3.93
2017-12-05T05:56:49.015Z,3.20
2017-12-05T05:59:15.400Z,2.70
2017-12-05T06:01:41.790Z,2.53
2017-12-05T06:04:08.217Z,3.70
2017-12-05T06:06:34.616Z,2.73
2017-12-05T06:09:01.745Z,2.40
2017-12-05T06:11:28.151Z,3.73
2017-12-05T06:13:54.536Z,6.83
2017-12-05T06:16:20.909Z,2.97
2017-12-05T06:18:47.290Z,3.83
2017-12-05T06:21:14.426Z,2.60
2017-12-05T06:23:41.590Z,4.60
2017-12-05T06:26:08.074Z,2.53
2017-12-05T06:28:34.520Z,2.93
2017-12-05T06:31:00.994Z,2.57
2017-12-05T06:33:27.391Z,2.93
2017-12-05T06:35:53.867Z,4.43
2017-12-05T06:38:20.271Z,2.20
2017-12-05T06:40:47.159Z,2.30
2017-12-05T06:43:13.571Z,4.30
2017-12-05T06:45:40.051Z,2.23
2017-12-05T06:48:06.656Z,3.37
2017-12-05T06:50:33.153Z,1.90
2017-12-05T06:53:00.368Z,3.10
2017-12-05T06:55:26.844Z,2.50
2017-12-05T06:57:53.304Z,2.30
2017-12-05T07:00:19.775Z,3.10
2017-12-05T07:02:46.196Z,4.43
2017-12-05T07:05:12.651Z,2.50
2017-12-05T07:07:39.129Z,2.00
2017-12-05T07:10:05.635Z,1.63
2017-12-05T07:12:32.109Z,2.07
2017-12-05T07:14:58.598Z,1.80
2017-12-05T07:17:25.100Z,2.13
2017-12-05T07:19:52.376Z,1.33
2017-12-05T07:22:19.572Z,1.70
2017-12-05T07:24:46.049Z,1.83
2017-12-05T07:27:12.686Z,1.47
2017-12-05T07:29:39.918Z,1.60
2017-12-05T07:32:06.462Z,1.57
2017-12-05T07:34:32.966Z,2.10
2017-12-05T07:37:00.239Z,12.63
2017-12-05T07:39:26.679Z,1.60
2017-12-05T07:41:53.956Z,2.00
2017-12-05T07:44:20.460Z,6.60
2017-12-05T07:46:46.928Z,6.23
2017-12-05T07:49:13.439Z,1.93
2017-12-05T07:51:40.692Z,1.90
2017-12-05T07:54:07.901Z,1.70
2017-12-05T07:56:34.365Z,2.23
2017-12-05T07:59:00.941Z,1.63
2017-12-05T08:01:27.438Z,1.53
2017-12-05T08:03:53.892Z,1.50
2017-12-05T08:06:20.431Z,1.73
2017-12-05T08:08:47.714Z,1.70
2017-12-05T08:11:14.269Z,1.73
2017-12-05T08:13:40.778Z,3.23
2017-12-05T08:16:07.342Z,1.43
2017-12-05T08:18:33.912Z,1.40
2017-12-05T08:21:01.240Z,1.80
2017-12-05T08:23:27.795Z,1.67
2017-12-05T08:25:55.058Z,1.70
2017-12-05T08:28:21.676Z,1.40
2017-12-05T08:30:48.988Z,1.00
2017-12-05T08:33:15.556Z,1.30
2017-12-05T08:35:42.179Z,1.33
2017-12-05T08:38:08.798Z,2.30
2017-12-05T08:40:35.399Z,1.40
2017-12-05T08:43:01.984Z,1.20
2017-12-05T08:45:28.527Z,1.33
2017-12-05T08:47:55.029Z,2.13
2017-12-05T08:50:21.531Z,2.60
2017-12-05T08:52:48.807Z,1.30
2017-12-05T08:55:15.440Z,2.53
2017-12-05T08:57:41.983Z,1.50
2017-12-05T09:00:08.593Z,1.40
2017-12-05T09:02:35.817Z,1.73
2017-12-05T09:05:02.300Z,2.40
2017-12-05T09:07:28.802Z,5.23
2017-12-05T09:09:56.088Z,2.07
2017-12-05T09:12:22.673Z,1.50
2017-12-05T09:14:49.221Z,2.00
2017-12-05T09:17:16.470Z,2.10
2017-12-05T09:19:42.966Z,1.93
2017-12-05T09:22:09.514Z,1.83
2017-12-05T09:24:35.998Z,1.60
2017-12-05T09:27:02.533Z,1.80
2017-12-05T09:29:29.014Z,1.90
2017-12-05T09:31:55.508Z,2.20
2017-12-05T09:34:22.030Z,1.90
2017-12-05T09:36:49.325Z,1.53
2017-12-05T09:39:15.948Z,6.20
2017-12-05T09:41:42.520Z,1.63
2017-12-05T09:44:09.032Z,1.97
2017-12-05T09:46:35.523Z,1.93
2017-12-05T09:49:02.788Z,4.00
2017-12-05T09:51:29.277Z,1.73
2017-12-05T09:53:55.784Z,2.20
2017-12-05T09:56:22.259Z,2.63
2017-12-05T09:58:50.255Z,3.30
2017-12-05T10:01:16.796Z,3.20
2017-12-05T10:03:44.119Z,2.20
2017-12-05T10:06:10.619Z,2.23
2017-12-05T10:08:37.120Z,2.50
2017-12-05T10:11:03.669Z,3.17
2017-12-05T10:13:30.156Z,2.40
2017-12-05T10:15:56.668Z,4.03
2017-12-05T10:18:23.235Z,3.47
2017-12-05T10:20:49.743Z,2.37
2017-12-05T10:23:16.254Z,2.37
2017-12-05T10:25:42.781Z,3.20
2017-12-05T10:28:09.305Z,2.03
2017-12-05T10:30:35.793Z,2.17
2017-12-05T10:33:02.284Z,5.23
2017-12-05T10:35:28.798Z,14.47
2017-12-05T10:37:55.288Z,3.37
2017-12-05T10:40:21.751Z,5.37
2017-12-05T10:42:48.271Z,8.03
2017-12-05T10:45:15.511Z,6.10
2017-12-05T10:47:41.977Z,11.53
2017-12-05T10:50:09.204Z,4.97
2017-12-05T10:52:35.656Z,3.13
2017-12-05T10:55:02.138Z,3.40
2017-12-05T10:57:28.629Z,5.53
2017-12-05T10:59:55.848Z,3.53
2017-12-05T11:02:22.355Z,3.43
2017-12-05T11:04:48.826Z,3.50
2017-12-05T11:07:15.296Z,4.23
2017-12-05T11:09:42.503Z,4.80
2017-12-05T11:12:08.960Z,5.10
2017-12-05T11:14:35.459Z,5.20
2017-12-05T11:17:01.958Z,5.90
2017-12-05T11:19:28.450Z,5.23
2017-12-05T11:21:54.940Z,4.47
2017-12-05T11:24:21.408Z,6.20
2017-12-05T11:26:47.923Z,7.73
2017-12-05T11:29:14.399Z,6.13
2017-12-05T11:31:40.844Z,8.23
2017-12-05T11:34:07.278Z,6.77
2017-12-05T11:36:34.490Z,6.50
2017-12-05T11:39:00.934Z,7.50
2017-12-05T11:41:27.388Z,9.90
2017-12-05T11:43:54.603Z,8.47
2017-12-05T11:46:21.113Z,9.63
2017-12-05T11:48:47.587Z,9.03
2017-12-05T11:51:14.087Z,7.23
2017-12-05T11:53:40.594Z,5.93
2017-12-05T11:56:07.060Z,6.13
2017-12-05T11:58:33.498Z,6.30
2017-12-05T12:01:00.052Z,4.13
2017-12-05T12:03:26.534Z,6.20
2017-12-05T12:05:53.016Z,5.90
2017-12-05T12:08:19.491Z,4.50
2017-12-05T12:10:46.703Z,6.70
2017-12-05T12:13:13.174Z,6.20
2017-12-05T12:15:40.351Z,5.10
2017-12-05T12:18:06.786Z,4.37
2017-12-05T12:20:33.215Z,3.80
2017-12-05T12:22:59.651Z,6.00
2017-12-05T12:25:26.118Z,5.73
2017-12-05T12:27:54.036Z,5.73
2017-12-05T12:30:21.274Z,3.37
2017-12-05T12:32:47.725Z,3.70
2017-12-05T12:35:19.189Z,5.20
2017-12-05T12:37:45.666Z,3.20
2017-12-05T12:40:12.207Z,3.93
2017-12-05T12:42:39.437Z,4.23
2017-12-05T12:45:05.890Z,3.57
2017-12-05T12:47:33.072Z,3.20
2017-12-05T12:50:00.325Z,3.53
2017-12-05T12:52:26.799Z,4.17
2017-12-05T12:54:53.227Z,4.33
2017-12-05T12:57:19.660Z,3.60
2017-12-05T12:59:46.078Z,2.70
2017-12-05T13:02:12.561Z,3.97
2017-12-05T13:04:38.948Z,3.73
2017-12-05T13:07:05.515Z,5.17
2017-12-05T13:09:32.048Z,3.37
2017-12-05T13:11:58.480Z,3.70
2017-12-05T13:14:24.923Z,3.10
2017-12-05T13:16:52.108Z,3.40
2017-12-05T13:19:19.294Z,3.57
2017-12-05T13:21:45.717Z,3.47
2017-12-05T13:24:12.179Z,3.83
2017-12-05T13:26:38.630Z,5.80
2017-12-05T13:29:05.072Z,5.00
2017-12-05T13:31:34.292Z,5.60
2017-12-05T13:34:00.767Z,4.33
2017-12-05T13:36:27.323Z,9.63
2017-12-05T13:38:53.799Z,4.20
2017-12-05T13:41:20.998Z,7.80
2017-12-05T13:43:47.465Z,4.10
2017-12-05T13:46:14.648Z,7.77
2017-12-05T13:48:41.158Z,5.73
2017-12-05T13:51:08.371Z,4.37
2017-12-05T13:53:35.055Z,5.00
2017-12-05T13:56:01.518Z,5.90
2017-12-05T13:58:27.986Z,7.47
2017-12-05T14:00:54.433Z,5.27
2017-12-05T14:03:20.912Z,5.17
2017-12-05T14:05:47.408Z,7.83
2017-12-05T14:08:14.599Z,5.10
2017-12-05T14:10:41.086Z,5.33
2017-12-05T14:13:07.529Z,5.97
2017-12-05T14:15:34.738Z,15.03
2017-12-05T14:18:01.208Z,9.50
2017-12-05T14:20:27.696Z,11.40
2017-12-05T14:22:54.189Z,7.43
2017-12-05T14:25:21.415Z,4.43
2017-12-05T14:27:47.882Z,4.87
2017-12-05T14:30:15.106Z,7.10
2017-12-05T14:32:41.539Z,4.87
2017-12-05T14:35:08.760Z,6.17
2017-12-05T14:37:35.229Z,6.53
2017-12-05T14:40:01.654Z,5.40
2017-12-05T14:42:28.943Z,9.40
2017-12-05T14:44:55.406Z,5.10
2017-12-05T14:47:21.851Z,10.53
2017-12-05T14:49:48.290Z,5.97
2017-12-05T14:52:14.771Z,7.57
2017-12-05T14:54:41.225Z,11.60
2017-12-05T14:57:07.812Z,10.30
2017-12-05T14:59:35.059Z,8.50
2017-12-05T15:02:01.526Z,11.67
2017-12-05T15:04:28.727Z,10.70
2017-12-05T15:06:55.197Z,10.30
2017-12-05T15:09:22.390Z,14.07
2017-12-05T15:11:48.863Z,15.47
2017-12-05T15:14:15.355Z,14.60
2017-12-05T15:16:41.844Z,14.17
2017-12-05T15:19:08.352Z,16.37
2017-12-05T15:21:34.807Z,13.50
2017-12-05T15:24:02.791Z,12.40
2017-12-05T15:26:30.562Z,12.80
2017-12-05T15:28:57.769Z,16.77
2017-12-05T15:31:24.295Z,12.77
2017-12-05T15:33:50.767Z,19.20
2017-12-05T15:36:18.028Z,15.70
2017-12-05T15:38:44.487Z,18.57
2017-12-05T15:41:10.952Z,20.17
2017-12-05T15:43:37.426Z,13.23
2017-12-05T15:46:04.592Z,12.17
2017-12-05T15:48:31.069Z,10.90
2017-12-05T15:50:58.323Z,14.80
2017-12-05T15:53:25.747Z,13.67
2017-12-05T15:55:52.228Z,11.57
2017-12-05T15:58:19.348Z,15.27
2017-12-05T16:00:45.849Z,15.03
2017-12-05T16:03:13.352Z,11.77
2017-12-05T16:05:40.842Z,14.83
2017-12-05T16:08:08.033Z,18.37
2017-12-05T16:10:34.535Z,16.03
2017-12-05T16:13:01.755Z,15.60
2017-12-05T16:15:28.287Z,17.90
2017-12-05T16:17:54.743Z,14.67
2017-12-05T16:20:21.172Z,11.30
2017-12-05T16:22:47.635Z,16.17
2017-12-05T16:25:14.113Z,13.00
2017-12-05T16:27:40.611Z,16.77
2017-12-05T16:30:07.096Z,13.97
2017-12-05T16:32:34.326Z,9.20
2017-12-05T16:35:00.750Z,11.77
2017-12-05T16:37:27.266Z,9.70
2017-12-05T16:39:53.707Z,11.93
2017-12-05T16:42:20.194Z,13.90
2017-12-05T16:44:47.410Z,15.43
2017-12-05T16:47:13.858Z,10.43
2017-12-05T16:49:40.287Z,9.63
2017-12-05T16:52:06.764Z,16.17
2017-12-05T16:54:33.975Z,12.40
2017-12-05T16:57:00.432Z,14.70
2017-12-05T16:59:26.973Z,13.07
2017-12-05T17:01:53.523Z,10.80
2017-12-05T17:04:20.728Z,12.97
2017-12-05T17:06:47.230Z,12.83
2017-12-05T17:09:13.711Z,14.40
2017-12-05T17:11:40.232Z,10.07
2017-12-05T17:14:06.700Z,12.77
2017-12-05T17:16:33.921Z,11.20
2017-12-05T17:19:00.420Z,8.53
2017-12-05T17:21:26.915Z,9.33
2017-12-05T17:26:24.131Z,9.10
2017-12-05T17:28:50.584Z,12.50
2017-12-05T17:31:17.073Z,11.00
2017-12-05T17:33:43.567Z,9.33
2017-12-05T17:36:10.807Z,7.47
2017-12-05T17:38:37.256Z,10.97
2017-12-05T17:41:03.707Z,8.20
2017-12-05T17:43:30.908Z,8.70
2017-12-05T17:45:57.402Z,11.27
2017-12-05T17:48:24.649Z,14.43
2017-12-05T17:50:51.837Z,10.67
2017-12-05T17:53:18.295Z,12.93
2017-12-05T17:55:44.770Z,13.60
2017-12-05T17:58:11.229Z,11.37
2017-12-05T18:00:37.768Z,14.30
2017-12-05T18:03:04.231Z,12.80
2017-12-05T18:05:30.697Z,12.83
2017-12-05T18:07:57.935Z,13.13
2017-12-05T18:10:24.410Z,9.57
2017-12-05T18:12:50.893Z,14.90
2017-12-05T18:15:17.343Z,11.77
2017-12-05T18:17:43.859Z,12.63
2017-12-05T18:20:10.342Z,12.83
2017-12-05T18:22:36.786Z,13.80
2017-12-05T18:25:03.259Z,11.70
2017-12-05T18:27:29.733Z,15.73
2017-12-05T18:29:56.938Z,14.10
2017-12-05T18:32:23.420Z,13.00
2017-12-05T18:34:49.973Z,9.73
2017-12-05T18:37:17.168Z,12.27
2017-12-05T18:39:43.651Z,16.10
2017-12-05T18:42:10.138Z,13.60
2017-12-05T18:44:36.633Z,11.27
2017-12-05T18:47:03.159Z,13.33
2017-12-05T18:49:29.681Z,11.80
2017-12-05T18:51:56.184Z,13.70
2017-12-05T18:54:22.663Z,10.80
2017-12-05T18:56:49.138Z,13.03
2017-12-05T18:59:15.620Z,13.57
2017-12-05T19:01:42.086Z,15.30
2017-12-05T19:04:08.587Z,13.00
2017-12-05T19:06:35.046Z,12.20
2017-12-05T19:09:01.507Z,11.03
2017-12-05T19:11:27.969Z,12.53
2017-12-05T19:13:55.210Z,10.93
2017-12-05T19:16:21.767Z,10.07
2017-12-05T19:18:49.057Z,10.50
2017-12-05T19:21:15.861Z,9.13
2017-12-05T19:23:43.101Z,11.80
2017-12-05T19:26:10.330Z,9.90
2017-12-05T19:28:36.783Z,9.70
2017-12-05T19:31:03.251Z,8.97
2017-12-05T19:33:29.779Z,8.90
2017-12-05T19:35:56.284Z,9.40
2017-12-05T19:38:22.754Z,7.37
2017-12-05T19:40:49.274Z,8.20
2017-12-05T19:43:15.864Z,8.43
2017-12-05T19:45:42.345Z,8.13
2017-12-05T19:48:08.847Z,8.80
2017-12-05T19:50:35.410Z,9.77
2017-12-05T19:53:01.938Z,7.73
2017-12-05T19:55:29.377Z,7.20
2017-12-05T19:57:56.635Z,8.17
2017-12-05T20:00:23.142Z,7.73
2017-12-05T20:02:49.638Z,8.17
2017-12-05T20:05:16.112Z,8.00
2017-12-05T20:07:42.661Z,7.50
2017-12-05T20:10:09.159Z,6.40
2017-12-05T20:12:35.643Z,8.87
2017-12-05T20:15:02.861Z,6.00
2017-12-05T20:17:29.340Z,6.00
2017-12-05T20:19:56.594Z,8.17
2017-12-05T20:22:23.905Z,7.43
2017-12-05T20:24:51.870Z,6.10
2017-12-05T20:27:18.369Z,6.97
2017-12-05T20:29:44.882Z,7.33
2017-12-05T20:32:12.101Z,6.50
2017-12-05T20:34:38.594Z,7.67
2017-12-05T20:37:05.137Z,6.40
2017-12-05T20:39:31.615Z,5.77
2017-12-05T20:41:58.087Z,7.20
2017-12-05T20:44:24.571Z,7.13
2017-12-05T20:46:51.822Z,5.87
2017-12-05T20:49:18.628Z,7.87
2017-12-05T20:51:46.024Z,6.83
2017-12-05T20:54:13.424Z,6.37
2017-12-05T20:56:39.872Z,7.80
2017-12-05T20:59:06.307Z,7.93
2017-12-05T21:01:32.767Z,7.20
2017-12-05T21:03:59.217Z,7.07
2017-12-05T21:06:25.694Z,7.93
2017-12-05T21:08:52.157Z,7.40
2017-12-05T21:11:18.603Z,8.93
2017-12-05T21:13:45.050Z,6.90
2017-12-05T21:16:11.481Z,9.80
2017-12-05T21:18:37.944Z,8.33
2017-12-05T21:21:05.134Z,8.23
2017-12-05T21:23:31.599Z,8.00
2017-12-05T21:25:58.034Z,7.43
2017-12-05T21:28:24.449Z,8.07
2017-12-05T21:30:50.947Z,7.83
2017-12-05T21:33:17.411Z,6.37
2017-12-05T21:35:43.833Z,9.27
2017-12-05T21:38:11.232Z,8.37
2017-12-05T21:40:38.436Z,7.70
2017-12-05T21:43:05.617Z,7.80
2017-12-05T21:45:32.050Z,7.70
2017-12-05T21:47:59.274Z,8.63
2017-12-05T21:50:25.733Z,9.13
2017-12-05T21:52:52.165Z,6.87
2017-12-05T21:55:18.648Z,8.10
2017-12-05T21:57:45.822Z,8.70
2017-12-05T22:00:12.279Z,30.93
2017-12-05T22:02:38.707Z,7.50
2017-12-05T22:05:05.119Z,6.47
2017-12-05T22:07:31.543Z,7.73
2017-12-05T22:09:57.983Z,8.90
2017-12-05T22:12:24.406Z,7.73
2017-12-05T22:14:50.878Z,7.80
2017-12-05T22:17:17.280Z,6.40
2017-12-05T22:19:43.718Z,7.90
2017-12-05T22:22:10.160Z,8.10
2017-12-05T22:24:36.572Z,5.63
2017-12-05T22:27:03.004Z,7.93
2017-12-05T22:29:29.444Z,8.60
2017-12-05T22:31:55.946Z,8.77
2017-12-05T22:34:22.391Z,7.90
2017-12-05T22:36:49.560Z,6.17
2017-12-05T22:39:15.987Z,9.10
2017-12-05T22:41:42.458Z,10.10
2017-12-05T22:44:08.895Z,10.73
2017-12-05T22:46:35.317Z,10.50
2017-12-05T22:49:01.757Z,10.87
2017-12-05T22:51:28.254Z,10.60
2017-12-05T22:53:54.721Z,9.17
2017-12-05T22:56:21.160Z,8.47
2017-12-05T22:58:47.648Z,11.00
2017-12-05T23:01:14.100Z,8.50
2017-12-05T23:03:40.550Z,17.90
2017-12-05T23:06:06.958Z,9.63
2017-12-05T23:08:33.404Z,9.90
2017-12-05T23:10:59.830Z,10.80
2017-12-05T23:13:26.268Z,12.77
2017-12-05T23:15:52.740Z,13.70
2017-12-05T23:18:19.190Z,11.00
2017-12-05T23:20:46.361Z,9.07
2017-12-05T23:23:12.784Z,10.90
2017-12-05T23:25:39.944Z,10.43
2017-12-05T23:28:06.361Z,12.10
2017-12-05T23:30:33.550Z,11.20
2017-12-05T23:32:59.963Z,11.70
2017-12-05T23:35:26.444Z,14.03
2017-12-05T23:37:52.876Z,14.60
2017-12-05T23:40:19.297Z,10.77
2017-12-05T23:42:45.718Z,11.93
2017-12-05T23:45:12.146Z,12.50
2017-12-05T23:47:38.597Z,12.83
2017-12-05T23:50:05.010Z,12.60
